^^
Station Historical Data
Daily Summary for October 9, 2017 Units:  Metric    English   Both
« Previous Day
Next Day »
Daily Weekly Monthly Yearly Custom
  High: Low: Average:
Temperature: 11.9 °C 6.9 °C 8.2 °C
Dew Point: 3.9 °C 2.3 °C 3.2 °C
Humidity: 77% 54% 71%
Wind Speed: 30.6km/h 11.1km/h 19.5km/h
Wind Gust: 32.2km/h - -
Wind- - South
Pressure: 1016.8 hPa 1014.1 hPa -
Precipitation: 0 mm    
Historical Graphs
 
 
Tabular Data for October 9, 2017
Time Temperature Dew Point Pressure Wind Wind Speed Wind Gust Humidity Rainfall Rate (Hourly) solar Conditions
00:18 9.2 °C 2.5 °C 1014.1 hPa South 19.5 km/h 25.7 km/h 63% 0 mm 0.0 W/m2
00:28 9.1 °C 2.4 °C 1014.1 hPa South 14.3 km/h 27.4 km/h 63% 0 mm 0.0 W/m2
00:39 8.8 °C 3 °C 1014.4 hPa SSW 27.4 km/h 27.4 km/h 67% 0 mm 0.0 W/m2
00:48 8.7 °C 3.3 °C 1014.1 hPa South 17.7 km/h 24.1 km/h 69% 0 mm 0.0 W/m2
00:59 8.5 °C 3.5 °C 1014.1 hPa SSW 24.1 km/h 29 km/h 71% 0 mm 0.0 W/m2
01:09 8.4 °C 3.8 °C 1014.1 hPa South 20.9 km/h 30.6 km/h 73% 0 mm 0.0 W/m2
01:19 8.3 °C 3.9 °C 1014.1 hPa South 22.7 km/h 25.7 km/h 74% 0 mm 0.0 W/m2
01:28 8.2 °C 3.8 °C 1014.1 hPa South 20.9 km/h 29 km/h 74% 0 mm 0.0 W/m2
01:39 8.3 °C 3.9 °C 1014.4 hPa South 25.9 km/h 30.6 km/h 74% 0 mm 0.0 W/m2
01:49 8.2 °C 3.8 °C 1014.1 hPa South 17.7 km/h 32.2 km/h 74% 0 mm 0.0 W/m2
01:59 8.1 °C 3.9 °C 1014.1 hPa SSW 28.8 km/h 29 km/h 75% 0 mm 0.0 W/m2
02:09 7.9 °C 3.7 °C 1014.4 hPa SSW 13 km/h 25.7 km/h 75% 0 mm 0.0 W/m2
02:19 7.9 °C 3.7 °C 1014.1 hPa South 24.1 km/h 25.7 km/h 75% 0 mm 0.0 W/m2
02:29 7.8 °C 3.8 °C 1014.1 hPa South 22.7 km/h 22.7 km/h 76% 0 mm 0.0 W/m2
02:39 7.8 °C 3.8 °C 1014.1 hPa South 17.7 km/h 25.7 km/h 76% 0 mm 0.0 W/m2
02:49 7.7 °C 3.7 °C 1014.1 hPa South 25.9 km/h 29 km/h 76% 0 mm 0.0 W/m2
02:59 7.7 °C 3.5 °C 1014.1 hPa South 16.3 km/h 22.5 km/h 75% 0 mm 0.0 W/m2
03:09 7.6 °C 3.6 °C 1014.1 hPa South 17.7 km/h 24.1 km/h 76% 0 mm 0.0 W/m2
03:19 7.6 °C 3.5 °C 1014.1 hPa South 14.3 km/h 22.5 km/h 75% 0 mm 0.0 W/m2
03:29 7.6 °C 3.5 °C 1014.1 hPa South 16.3 km/h 17.7 km/h 75% 0 mm 0.0 W/m2
03:49 7.5 °C 3.4 °C 1014.1 hPa SSW 19.5 km/h 22.5 km/h 75% 0 mm 0.0 W/m2
03:59 7.5 °C 3.4 °C 1014.1 hPa SSW 16.3 km/h 24.1 km/h 75% 0 mm 0.0 W/m2
04:08 7.6 °C 3.5 °C 1014.4 hPa SSW 14.3 km/h 20.9 km/h 75% 0 mm 0.0 W/m2
04:39 7.3 °C 3.3 °C 1014.4 hPa South 30.6 km/h 32.2 km/h 76% 0 mm 0.0 W/m2
04:59 7.2 °C 2.9 °C 1014.4 hPa South 27.4 km/h 29 km/h 74% 0 mm 0.0 W/m2
05:19 7.1 °C 3.2 °C 1014.8 hPa South 22.7 km/h 27.4 km/h 76% 0 mm 0.0 W/m2
05:29 7 °C 3.2 °C 1015.1 hPa South 19.5 km/h 27.4 km/h 77% 0 mm 0.0 W/m2
05:39 6.9 °C 3.1 °C 1015.1 hPa SSE 20.9 km/h 24.1 km/h 77% 0 mm 0.0 W/m2
05:49 6.9 °C 3.1 °C 1015.1 hPa South 20.9 km/h 29 km/h 77% 0 mm 0.0 W/m2
05:59 6.9 °C 3 °C 1015.5 hPa SSW 19.5 km/h 22.5 km/h 76% 0 mm 0.0 W/m2
06:20 6.9 °C 2.8 °C 1015.5 hPa South 22.7 km/h 25.7 km/h 75% 0 mm 0.0 W/m2
06:36 6.9 °C 2.6 °C 1015.8 hPa South 16.3 km/h 25.7 km/h 74% 0 mm 11.0 W/m2
07:21 7.5 °C 2.4 °C 1016.1 hPa South 17.7 km/h 20.9 km/h 70% 0 mm 142.0 W/m2
07:37 7.9 °C 2.4 °C 1016.1 hPa SSE 16.3 km/h 22.5 km/h 68% 0 mm 207.0 W/m2
07:52 8.2 °C 2.4 °C 1016.5 hPa South 16.3 km/h 25.7 km/h 67% 0 mm 265.0 W/m2
08:07 8.5 °C 2.3 °C 1016.8 hPa SSW 11.1 km/h 25.7 km/h 65% 0 mm 316.0 W/m2
08:22 8.8 °C 2.4 °C 1016.8 hPa South 13 km/h 22.5 km/h 64% 0 mm 373.0 W/m2
09:01 9.5 °C 2.4 °C 1016.8 hPa South 17.7 km/h 24.1 km/h 61% 0 mm 424.0 W/m2
09:11 10.1 °C 2.7 °C 1016.8 hPa SSW 13 km/h 19.3 km/h 60% 0 mm 555.0 W/m2
09:46 10.7 °C 3 °C 1016.8 hPa SW 16.3 km/h 19.3 km/h 59% 0 mm 631.0 W/m2
09:56 11.2 °C 3 °C 1016.8 hPa South 19.5 km/h 24.1 km/h 57% 0 mm 693.0 W/m2
10:21 11.9 °C 2.9 °C 1016.8 hPa SSW 16.3 km/h 16.3 km/h 54% 0 mm 622.0 W/m2
Canyon Roadhouse, Fishriver Canyon, Namibia
Compliments of Weather Underground - 1.75 mb